createdAt,value
2022-11-28T00:03:03.088Z,21.27
2022-11-28T00:08:05.818Z,24.35
2022-11-28T00:13:08.315Z,22.90
2022-11-28T00:18:11.547Z,22.25
2022-11-28T00:23:14.165Z,18.70
2022-11-28T00:28:16.784Z,20.92
2022-11-28T00:33:22.426Z,20.08
2022-11-28T00:38:25.073Z,19.38
2022-11-28T00:43:27.900Z,17.92
2022-11-28T00:48:30.507Z,18.00
2022-11-28T00:53:33.072Z,21.65
2022-11-28T00:58:36.128Z,17.85
2022-11-28T01:03:39.051Z,19.35
2022-11-28T01:08:41.608Z,17.73
2022-11-28T01:13:44.136Z,19.13
2022-11-28T01:18:46.908Z,18.73
2022-11-28T01:23:49.574Z,23.05
2022-11-28T01:28:55.510Z,23.10
2022-11-28T01:33:58.235Z,21.20
2022-11-28T01:39:00.825Z,23.02
2022-11-28T01:44:03.321Z,25.13
2022-11-28T01:49:09.677Z,24.15
2022-11-28T01:54:13.162Z,21.85
2022-11-28T01:59:16.328Z,22.75
2022-11-28T02:04:19.241Z,21.00
2022-11-28T02:09:21.765Z,21.40
2022-11-28T02:14:27.080Z,23.55
2022-11-28T02:19:38.745Z,22.80
2022-11-28T02:24:56.732Z,21.15
2022-11-28T02:30:13.436Z,23.60
2022-11-28T02:35:34.893Z,26.02
2022-11-28T02:40:37.789Z,21.63
2022-11-28T02:45:50.587Z,26.20
2022-11-28T02:51:01.026Z,27.23
2022-11-28T02:56:03.907Z,30.05
2022-11-28T03:01:07.482Z,26.50
2022-11-28T03:06:17.842Z,29.95
2022-11-28T03:11:25.507Z,32.20
2022-11-28T03:16:30.303Z,31.58
2022-11-28T03:21:45.185Z,33.75
2022-11-28T03:26:54.140Z,28.67
2022-11-28T03:32:07.056Z,33.78
2022-11-28T03:37:12.238Z,32.55
2022-11-28T03:42:20.879Z,30.50
2022-11-28T03:47:25.675Z,29.00
2022-11-28T03:52:38.298Z,32.47
2022-11-28T03:57:45.269Z,26.95
2022-11-28T04:03:09.410Z,27.42
2022-11-28T04:08:11.941Z,27.45
2022-11-28T04:13:33.363Z,24.98
2022-11-28T04:18:54.685Z,27.90
2022-11-28T04:23:59.745Z,28.90
2022-11-28T04:29:05.056Z,31.30
2022-11-28T04:34:09.214Z,25.38
2022-11-28T04:39:23.078Z,26.30
2022-11-28T04:44:28.158Z,24.95
2022-11-28T04:49:31.496Z,27.08
2022-11-28T04:54:37.072Z,25.08
2022-11-28T04:59:40.142Z,24.25
2022-11-28T05:04:43.772Z,32.85
2022-11-28T05:09:46.399Z,30.13
2022-11-28T05:14:49.016Z,28.60
2022-11-28T05:19:51.529Z,34.05
2022-11-28T05:24:54.036Z,31.58
2022-11-28T05:29:56.557Z,35.35
2022-11-28T05:34:59.166Z,29.42
2022-11-28T05:40:01.839Z,34.90
2022-11-28T05:45:04.555Z,32.58
2022-11-28T05:50:07.494Z,28.85
2022-11-28T05:55:10.099Z,30.80
2022-11-28T06:00:14.641Z,28.15
2022-11-28T06:05:40.892Z,29.50
2022-11-28T06:10:40.440Z,28.98
2022-11-28T06:15:45.330Z,28.67
2022-11-28T06:20:47.963Z,33.80
2022-11-28T06:25:50.639Z,30.95
2022-11-28T06:30:53.319Z,30.88
2022-11-28T06:36:00.108Z,28.23
2022-11-28T06:41:04.603Z,29.98
2022-11-28T06:46:16.280Z,30.00
2022-11-28T06:51:19.836Z,30.38
2022-11-28T06:56:22.715Z,33.80
2022-11-28T07:01:26.613Z,29.77
2022-11-28T07:06:29.577Z,32.20
2022-11-28T07:11:32.289Z,29.35
2022-11-28T07:16:35.035Z,30.83
2022-11-28T07:21:37.660Z,32.17
2022-11-28T07:26:40.467Z,32.85
2022-11-28T07:31:43.145Z,33.40
2022-11-28T07:36:45.795Z,33.38
2022-11-28T07:41:48.432Z,48.42
2022-11-28T07:46:51.150Z,39.75
2022-11-28T07:51:53.705Z,33.47
2022-11-28T07:57:12.380Z,34.63
2022-11-28T08:02:16.161Z,32.53
2022-11-28T08:07:19.856Z,32.80
2022-11-28T08:12:22.562Z,32.83
2022-11-28T08:17:25.345Z,45.92
2022-11-28T08:22:28.220Z,35.83
2022-11-28T08:27:31.630Z,44.00
2022-11-28T08:32:34.222Z,32.92
2022-11-28T08:37:37.026Z,32.33
2022-11-28T08:42:39.611Z,35.63
2022-11-28T08:47:42.482Z,35.30
2022-11-28T08:52:46.526Z,47.63
2022-11-28T08:57:49.099Z,34.15
2022-11-28T09:02:51.666Z,35.92
2022-11-28T09:07:57.397Z,35.15
2022-11-28T09:13:01.260Z,32.20
2022-11-28T09:18:04.086Z,32.05
2022-11-28T09:23:07.646Z,39.08
2022-11-28T09:28:10.412Z,28.88
2022-11-28T09:33:13.661Z,31.85
2022-11-28T09:38:16.415Z,48.60
2022-11-28T09:43:23.985Z,43.15
2022-11-28T09:48:32.054Z,31.30
2022-11-28T09:53:48.888Z,30.92
2022-11-28T09:58:55.104Z,33.60
2022-11-28T10:04:17.259Z,29.70
2022-11-28T10:09:32.861Z,26.65
2022-11-28T10:14:36.012Z,39.03
2022-11-28T10:20:05.145Z,30.30
2022-11-28T10:25:15.783Z,34.67
2022-11-28T10:30:22.583Z,35.72
2022-11-28T10:35:28.556Z,31.85
2022-11-28T10:40:49.084Z,29.45
2022-11-28T10:45:57.911Z,32.40
2022-11-28T10:51:00.690Z,32.53
2022-11-28T10:56:32.486Z,64.22
2022-11-28T11:01:37.408Z,43.35
2022-11-28T11:06:41.989Z,36.10
2022-11-28T11:12:03.166Z,31.13
2022-11-28T11:17:06.106Z,33.40
2022-11-28T11:22:27.076Z,34.20
2022-11-28T11:27:30.322Z,34.67
2022-11-28T11:32:32.889Z,35.55
2022-11-28T11:37:36.756Z,38.70
2022-11-28T11:42:51.031Z,25.23
2022-11-28T11:47:53.629Z,43.55
2022-11-28T11:53:11.305Z,26.75
2022-11-28T11:58:15.507Z,27.83
2022-11-28T12:03:29.053Z,28.92
2022-11-28T12:08:35.221Z,29.27
2022-11-28T12:13:38.034Z,33.88
2022-11-28T12:18:43.730Z,32.67
2022-11-28T12:24:09.646Z,31.27
2022-11-28T12:29:31.184Z,31.23
2022-11-28T12:34:46.044Z,31.48
2022-11-28T12:39:48.640Z,30.85
2022-11-28T12:45:05.838Z,28.02
2022-11-28T12:50:26.889Z,32.20
2022-11-28T12:55:48.511Z,36.58
2022-11-28T13:01:12.332Z,30.25
2022-11-28T13:06:21.485Z,32.47
2022-11-28T13:11:30.280Z,32.53
2022-11-28T13:16:42.551Z,32.00
2022-11-28T13:21:52.582Z,32.42
2022-11-28T13:27:04.680Z,31.30
2022-11-28T13:32:26.426Z,38.40
2022-11-28T13:43:26.394Z,35.03
2022-11-28T13:54:18.350Z,33.55
2022-11-28T13:59:22.398Z,36.40
2022-11-28T14:04:26.018Z,36.10
2022-11-28T14:09:38.761Z,35.78
2022-11-28T14:20:04.921Z,40.30
2022-11-28T14:25:10.600Z,36.60
2022-11-28T14:30:26.490Z,35.90
2022-11-28T14:35:47.545Z,37.40
2022-11-28T14:40:50.131Z,38.38
2022-11-28T14:45:53.092Z,34.65
2022-11-28T14:51:01.408Z,34.35
2022-11-28T14:56:15.209Z,39.13
2022-11-28T15:01:27.514Z,34.83
2022-11-28T15:06:33.253Z,35.10
2022-11-28T15:11:35.743Z,37.03
2022-11-28T15:16:48.301Z,37.20
2022-11-28T15:21:55.796Z,37.90
2022-11-28T15:27:15.990Z,37.35
2022-11-28T15:32:20.886Z,39.75
2022-11-28T15:37:27.495Z,36.40
2022-11-28T15:42:33.796Z,35.53
2022-11-28T15:47:36.900Z,33.85
2022-11-28T15:52:39.704Z,36.67
2022-11-28T15:57:42.368Z,33.63
2022-11-28T16:02:45.681Z,40.40
2022-11-28T16:07:50.514Z,38.25
2022-11-28T16:12:58.344Z,36.72
2022-11-28T16:18:01.282Z,37.80
2022-11-28T16:23:11.462Z,38.88
2022-11-28T16:28:36.833Z,39.95
2022-11-28T16:33:39.574Z,37.95
2022-11-28T16:38:43.660Z,37.00
2022-11-28T16:43:52.559Z,40.03
2022-11-28T16:48:59.404Z,51.78
2022-11-28T16:54:20.526Z,45.33
2022-11-28T16:59:24.097Z,43.67
2022-11-28T17:04:28.046Z,43.78
2022-11-28T17:09:30.705Z,39.92
2022-11-28T17:14:33.698Z,43.60
2022-11-28T17:19:36.517Z,46.95
2022-11-28T17:24:39.226Z,41.72
2022-11-28T17:29:42.214Z,41.22
2022-11-28T17:34:48.383Z,47.80
2022-11-28T17:40:09.795Z,45.40
2022-11-28T17:45:15.567Z,54.60
2022-11-28T17:50:19.221Z,50.13
2022-11-28T17:55:22.401Z,47.70
2022-11-28T18:00:25.068Z,54.22
2022-11-28T18:05:28.068Z,58.53
2022-11-28T18:10:30.862Z,50.08
2022-11-28T18:15:35.992Z,46.85
2022-11-28T18:20:38.668Z,101.82
2022-11-28T18:25:41.985Z,56.75
2022-11-28T18:30:45.836Z,45.65
2022-11-28T18:35:48.581Z,40.90
2022-11-28T18:40:52.226Z,52.42
2022-11-28T18:45:54.972Z,47.72
2022-11-28T18:50:58.084Z,52.38
2022-11-28T18:56:02.441Z,45.92
2022-11-28T19:01:15.499Z,55.38
2022-11-28T19:06:18.563Z,45.22
2022-11-28T19:11:21.673Z,45.60
2022-11-28T19:16:29.363Z,46.97
2022-11-28T19:21:34.287Z,52.70
2022-11-28T19:26:38.260Z,59.35
2022-11-28T19:31:41.771Z,43.70
2022-11-28T19:36:45.827Z,46.38
2022-11-28T19:41:49.017Z,43.10
2022-11-28T19:46:52.967Z,43.25
2022-11-28T19:51:55.693Z,43.95
2022-11-28T19:56:58.720Z,47.70
2022-11-28T20:02:02.863Z,54.85
2022-11-28T20:07:05.605Z,65.18
2022-11-28T20:12:08.449Z,42.78
2022-11-28T20:17:11.110Z,40.92
2022-11-28T20:22:14.003Z,43.53
2022-11-28T20:27:16.616Z,42.15
2022-11-28T20:32:19.406Z,42.67
2022-11-28T20:37:22.894Z,42.63
2022-11-28T20:42:25.458Z,40.50
2022-11-28T20:47:28.014Z,41.13
2022-11-28T20:52:30.543Z,38.85
2022-11-28T20:57:33.049Z,39.53
2022-11-28T21:02:35.766Z,41.22
2022-11-28T21:07:38.431Z,40.28
2022-11-28T21:12:41.089Z,41.65
2022-11-28T21:17:43.666Z,39.10
2022-11-28T21:22:46.319Z,39.33
2022-11-28T21:27:49.017Z,39.60
2022-11-28T21:32:51.568Z,38.95
2022-11-28T21:37:54.147Z,38.17
2022-11-28T21:42:57.503Z,38.95
2022-11-28T21:48:00.248Z,41.92
2022-11-28T21:53:02.858Z,42.85
2022-11-28T21:58:05.453Z,37.15
2022-11-28T22:03:13.883Z,39.25
2022-11-28T22:08:17.328Z,36.80
2022-11-28T22:13:20.098Z,35.55
2022-11-28T22:18:23.015Z,39.38
2022-11-28T22:23:25.865Z,37.40
2022-11-28T22:28:28.743Z,35.25
2022-11-28T22:33:31.253Z,36.92
2022-11-28T22:38:33.991Z,35.65
2022-11-28T22:43:36.836Z,38.03
2022-11-28T22:48:40.156Z,36.70
2022-11-28T22:53:43.120Z,37.58
2022-11-28T22:58:46.127Z,38.28
2022-11-28T23:03:48.979Z,34.92
2022-11-28T23:08:51.886Z,39.40
2022-11-28T23:13:54.659Z,34.97
2022-11-28T23:18:58.997Z,39.40
2022-11-28T23:24:01.510Z,40.50
2022-11-28T23:29:04.883Z,38.50
2022-11-28T23:34:09.640Z,36.75
2022-11-28T23:39:15.211Z,40.13
2022-11-28T23:44:18.833Z,35.47
2022-11-28T23:49:21.379Z,36.60
2022-11-28T23:54:23.830Z,36.83
2022-11-28T23:59:26.437Z,35.97
